21:35
Airports
History
Links
Donate
Help keep this website running!
PayPal
Bitcoin
This page is community maintained. The information is intended for PC simulator navigation or reference.
Always use approved charts for navigation.
LIBN
LECCE
LECCE (LIBN)
Lequile, Puglia, Italy (73010)
(C)
Lat/Lng:40° 14' 20.34" N / 18° 7' 59.13" E
40.238982 / 18.133091
Elevation:156'ft / 48mMSL
ID / ICAO:LIBN
Runways:1
Longest:(14-32) 2,060.0m / 6,759ft Asphalt
Controlled:Yes
Distance To
Airport ID:
Airport Radio Frequencies
Tower: 119.55, 122.1
Approach: 118.95, 122.1
Nearby VORs <50NM
Nearby NDBs
METARUpdated 08-16-17 20:55 GMT
Altimeter: 29.94
Visibility: 6.2 statute miles
Wind: 4 knots (290°)
Temp: 23°c 73°f
Humidity: 88.5%

METAR: LIBN 162055Z 29004KT CAVOK 23/21 Q1014 RMK SKC VIS MIN 9999 WIND THR14 31005KT WIND THR32 32005KT BLU

(Powered by phpweather)
Runway 14 / 32
Dimensions:2060 x 60.1m 6759' x 197'ft
Surface:Asphalt
Edge Lights:Low intensity
Runway 14 [A]Runway 32 [B]
Heading:145°TH 325°TH
Lat:
Lng:
40° 14' 48.04"N
18° 7' 34.52"E
40° 13' 52.63"N
18° 8' 23.73"E
ALS:SALS
TDZ:Yes, lighted
User Notes and Comments
Google Map
Nearby Airports
(C) Lecce Lepore 11.7 NM
LINL NE 46°
(C) BRINDISI/Casale 30.9 NM
LIBR (WX) NNW 341°
(C) GROTTAGLIE 43.0 NM
LIBG (WX) WNW 296°
(C) GIOIA DEL COLLE 72.8 NM
LIBV (WX) WNW 300°
(C) Bari Palese Macchie 95.0 NM
LIBD (WX) NW 310°
(C) KUCOVA 99.9 NM
LAKV ENE 68°
(U) CROTONE 102.5 NM
LIBC (WX) SSW 213°
VFR Chart
Flight Planning at SkyVector.com